createdAt,value
2023-05-25T00:01:01.144Z,9.21
2023-05-25T00:03:32.969Z,9.12
2023-05-25T00:06:02.451Z,9.25
2023-05-25T00:08:30.859Z,9.20
2023-05-25T00:10:59.369Z,9.13
2023-05-25T00:13:27.641Z,9.00
2023-05-25T00:15:55.995Z,9.15
2023-05-25T00:18:24.902Z,8.81
2023-05-25T00:20:55.127Z,9.12
2023-05-25T00:23:23.418Z,9.11
2023-05-25T00:25:51.707Z,9.10
2023-05-25T00:28:20.013Z,9.10
2023-05-25T00:30:48.494Z,9.08
2023-05-25T00:33:16.783Z,9.17
2023-05-25T00:35:45.544Z,9.16
2023-05-25T00:38:18.950Z,9.14
2023-05-25T00:40:47.407Z,8.97
2023-05-25T00:43:16.026Z,9.16
2023-05-25T00:45:44.584Z,9.13
2023-05-25T00:48:13.853Z,9.06
2023-05-25T00:50:45.655Z,9.16
2023-05-25T00:53:15.164Z,9.23
2023-05-25T00:55:51.092Z,9.20
2023-05-25T00:58:23.336Z,9.63
2023-05-25T01:00:53.451Z,9.19
2023-05-25T01:03:27.719Z,9.26
2023-05-25T01:05:58.494Z,9.28
2023-05-25T01:08:28.189Z,9.28
2023-05-25T01:10:59.805Z,9.32
2023-05-25T01:13:29.980Z,9.33
2023-05-25T01:15:59.915Z,9.41
2023-05-25T01:18:28.339Z,9.41
2023-05-25T01:21:13.195Z,9.51
2023-05-25T01:23:49.188Z,9.51
2023-05-25T01:26:19.563Z,9.40
2023-05-25T01:28:53.192Z,9.46
2023-05-25T01:31:24.206Z,9.59
2023-05-25T01:33:54.773Z,9.48
2023-05-25T01:36:24.413Z,9.62
2023-05-25T01:38:52.675Z,8.95
2023-05-25T01:41:21.567Z,9.52
2023-05-25T01:43:49.978Z,9.54
2023-05-25T01:46:29.096Z,9.61
2023-05-25T01:49:10.223Z,9.47
2023-05-25T01:51:47.328Z,9.68
2023-05-25T01:54:20.615Z,9.65
2023-05-25T01:56:51.139Z,9.62
2023-05-25T01:59:23.129Z,9.62
2023-05-25T02:01:54.570Z,9.59
2023-05-25T02:04:27.804Z,9.49
2023-05-25T02:06:58.499Z,9.59
2023-05-25T02:09:26.832Z,9.66
2023-05-25T02:11:56.056Z,9.59
2023-05-25T02:14:24.404Z,9.47
2023-05-25T02:16:52.655Z,9.39
2023-05-25T02:19:20.949Z,9.39
2023-05-25T02:21:49.204Z,9.41
2023-05-25T02:24:18.906Z,9.34
2023-05-25T02:26:47.140Z,9.39
2023-05-25T02:29:15.501Z,9.23
2023-05-25T02:31:43.831Z,8.94
2023-05-25T02:34:13.798Z,9.00
2023-05-25T02:36:43.437Z,9.32
2023-05-25T02:39:12.240Z,9.30
2023-05-25T02:41:42.052Z,9.05
2023-05-25T02:44:10.270Z,9.23
2023-05-25T02:46:38.565Z,9.40
2023-05-25T02:49:07.824Z,9.30
2023-05-25T02:51:37.506Z,9.22
2023-05-25T02:54:06.848Z,9.34
2023-05-25T02:56:35.568Z,9.27
2023-05-25T02:59:07.685Z,9.20
2023-05-25T03:01:36.661Z,9.21
2023-05-25T03:04:05.654Z,9.14
2023-05-25T03:06:38.148Z,9.10
2023-05-25T03:09:16.202Z,8.94
2023-05-25T03:11:45.526Z,9.13
2023-05-25T03:14:18.672Z,9.03
2023-05-25T03:16:54.366Z,9.04
2023-05-25T03:19:24.484Z,9.12
2023-05-25T03:21:52.750Z,9.15
2023-05-25T03:24:21.216Z,9.10
2023-05-25T03:26:49.694Z,9.07
2023-05-25T03:29:21.644Z,8.99
2023-05-25T03:31:50.321Z,8.91
2023-05-25T03:34:19.903Z,8.99
2023-05-25T03:36:48.179Z,9.13
2023-05-25T03:39:18.911Z,9.04
2023-05-25T03:41:47.240Z,9.02
2023-05-25T03:44:15.677Z,8.99
2023-05-25T03:46:46.390Z,8.89
2023-05-25T03:49:14.976Z,8.79
2023-05-25T03:51:43.659Z,8.80
2023-05-25T03:54:12.633Z,8.80
2023-05-25T03:56:40.912Z,8.79
2023-05-25T03:59:09.202Z,8.88
2023-05-25T04:02:01.031Z,8.87
2023-05-25T04:04:31.618Z,9.01
2023-05-25T04:07:01.604Z,8.84
2023-05-25T04:09:31.515Z,8.89
2023-05-25T04:11:59.756Z,8.80
2023-05-25T04:14:28.002Z,8.76
2023-05-25T04:16:56.252Z,8.75
2023-05-25T04:19:24.501Z,8.76
2023-05-25T04:21:54.135Z,8.86
2023-05-25T04:24:23.262Z,8.79
2023-05-25T04:26:51.596Z,8.95
2023-05-25T04:29:20.053Z,8.87
2023-05-25T04:32:04.246Z,8.99
2023-05-25T04:34:51.003Z,9.05
2023-05-25T04:37:27.194Z,9.06
2023-05-25T04:39:57.679Z,9.12
2023-05-25T04:42:26.960Z,9.22
2023-05-25T04:44:56.625Z,9.35
2023-05-25T04:47:26.106Z,9.31
2023-05-25T04:49:54.729Z,9.41
2023-05-25T04:52:25.994Z,9.38
2023-05-25T04:54:55.548Z,9.52
2023-05-25T04:57:24.082Z,9.65
2023-05-25T04:59:53.221Z,9.59
2023-05-25T05:02:21.535Z,9.74
2023-05-25T05:04:52.494Z,9.74
2023-05-25T05:07:21.146Z,10.45
2023-05-25T05:09:51.215Z,9.85
2023-05-25T05:12:23.812Z,9.96
2023-05-25T05:14:54.235Z,9.94
2023-05-25T05:17:23.058Z,9.86
2023-05-25T05:19:51.882Z,10.09
2023-05-25T05:22:20.346Z,10.11
2023-05-25T05:24:50.033Z,10.10
2023-05-25T05:27:26.256Z,10.12
2023-05-25T05:29:59.718Z,10.22
2023-05-25T05:32:28.342Z,10.25
2023-05-25T05:34:57.768Z,10.33
2023-05-25T05:37:46.115Z,10.38
2023-05-25T05:40:16.031Z,10.59
2023-05-25T05:42:44.320Z,10.59
2023-05-25T05:45:13.861Z,10.73
2023-05-25T05:47:42.151Z,10.86
2023-05-25T05:50:11.316Z,11.11
2023-05-25T05:52:41.698Z,11.08
2023-05-25T05:55:11.815Z,11.23
2023-05-25T05:57:43.213Z,11.29
2023-05-25T06:00:13.544Z,11.30
2023-05-25T06:02:44.590Z,11.39
2023-05-25T06:05:20.226Z,11.55
2023-05-25T06:07:49.514Z,11.79
2023-05-25T06:10:19.775Z,11.84
2023-05-25T06:13:00.183Z,11.94
2023-05-25T06:15:28.624Z,12.15
2023-05-25T06:17:59.926Z,12.07
2023-05-25T06:20:28.984Z,12.05
2023-05-25T06:22:57.369Z,12.24
2023-05-25T06:25:25.708Z,12.23
2023-05-25T06:27:55.857Z,12.34
2023-05-25T06:30:24.294Z,10.94
2023-05-25T06:32:53.415Z,12.48
2023-05-25T06:35:21.796Z,12.46
2023-05-25T06:37:52.782Z,12.31
2023-05-25T06:40:21.638Z,12.35
2023-05-25T06:46:18.906Z,12.65
2023-05-25T06:48:47.446Z,12.98
2023-05-25T06:51:16.178Z,13.08
2023-05-25T06:53:44.846Z,13.27
2023-05-25T06:56:13.814Z,13.21
2023-05-25T06:58:46.754Z,13.43
2023-05-25T07:01:21.635Z,13.47
2023-05-25T07:05:05.759Z,13.60
2023-05-25T07:07:34.370Z,13.54
2023-05-25T07:10:04.889Z,13.33
2023-05-25T07:12:33.088Z,13.52
2023-05-25T07:15:01.384Z,13.65
2023-05-25T07:17:31.559Z,13.81
2023-05-25T07:20:00.030Z,13.79
2023-05-25T07:22:28.296Z,13.91
2023-05-25T07:24:56.522Z,14.05
2023-05-25T07:27:25.533Z,14.30
2023-05-25T07:30:18.191Z,14.33
2023-05-25T07:32:47.858Z,14.40
2023-05-25T07:35:16.408Z,14.60
2023-05-25T07:37:44.676Z,14.60
2023-05-25T07:40:14.070Z,14.62
2023-05-25T07:42:42.316Z,14.57
2023-05-25T07:45:12.631Z,14.85
2023-05-25T07:47:40.928Z,14.87
2023-05-25T07:50:12.119Z,14.88
2023-05-25T07:52:40.372Z,14.99
2023-05-25T07:55:09.901Z,14.39
2023-05-25T07:57:38.345Z,15.23
2023-05-25T08:00:09.030Z,15.35
2023-05-25T08:02:43.260Z,15.43
2023-05-25T08:05:17.093Z,15.35
2023-05-25T08:07:46.710Z,15.45
2023-05-25T08:10:15.046Z,15.34
2023-05-25T08:12:49.625Z,15.59
2023-05-25T08:15:18.880Z,15.40
2023-05-25T08:17:49.393Z,15.86
2023-05-25T08:20:19.321Z,15.98
2023-05-25T08:22:47.612Z,16.15
2023-05-25T08:25:15.974Z,16.28
2023-05-25T08:27:44.295Z,16.61
2023-05-25T08:30:13.468Z,16.72
2023-05-25T08:32:42.173Z,16.82
2023-05-25T08:35:11.092Z,16.78
2023-05-25T08:37:41.111Z,16.93
2023-05-25T08:40:15.535Z,16.91
2023-05-25T08:42:44.861Z,16.93
2023-05-25T08:45:26.464Z,17.05
2023-05-25T08:48:05.628Z,17.27
2023-05-25T08:50:35.416Z,17.18
2023-05-25T08:53:07.503Z,17.57
2023-05-25T08:55:38.910Z,17.48
2023-05-25T08:58:16.242Z,17.45
2023-05-25T09:00:54.662Z,17.54
2023-05-25T09:03:23.440Z,17.47
2023-05-25T09:05:52.710Z,17.22
2023-05-25T09:08:24.074Z,17.12
2023-05-25T09:10:53.632Z,17.15
2023-05-25T09:13:23.087Z,17.25
2023-05-25T09:15:54.998Z,17.77
2023-05-25T09:18:23.282Z,17.76
2023-05-25T09:20:52.266Z,18.01
2023-05-25T09:23:22.967Z,18.17
2023-05-25T09:25:52.724Z,18.05
2023-05-25T09:28:26.989Z,17.28
2023-05-25T09:30:55.956Z,18.10
2023-05-25T09:33:24.248Z,18.32
2023-05-25T09:35:53.261Z,18.56
2023-05-25T09:38:23.673Z,18.83
2023-05-25T09:40:52.738Z,19.11
2023-05-25T09:43:36.590Z,18.99
2023-05-25T09:46:08.830Z,19.12
2023-05-25T09:48:38.065Z,19.30
2023-05-25T09:51:08.422Z,19.36
2023-05-25T09:53:38.168Z,19.25
2023-05-25T09:56:07.546Z,19.46
2023-05-25T09:58:36.271Z,19.57
2023-05-25T10:01:05.253Z,19.64
2023-05-25T10:03:59.449Z,19.57
2023-05-25T10:06:34.236Z,19.54
2023-05-25T10:09:04.931Z,19.67
2023-05-25T10:11:36.217Z,19.75
2023-05-25T10:14:08.522Z,20.02
2023-05-25T10:16:41.167Z,20.19
2023-05-25T10:19:18.431Z,20.33
2023-05-25T10:21:52.871Z,20.26
2023-05-25T10:24:30.534Z,19.98
2023-05-25T10:27:10.818Z,19.98
2023-05-25T10:29:41.211Z,19.72
2023-05-25T10:32:10.446Z,19.97
2023-05-25T10:34:38.804Z,19.90
2023-05-25T10:37:08.304Z,20.08
2023-05-25T10:39:38.634Z,20.06
2023-05-25T10:42:07.840Z,20.11
2023-05-25T10:44:36.208Z,20.29
2023-05-25T10:47:06.209Z,20.71
2023-05-25T10:49:35.715Z,20.28
2023-05-25T10:52:04.597Z,20.18
2023-05-25T10:54:36.201Z,20.45
2023-05-25T10:57:33.138Z,20.62
2023-05-25T11:00:08.780Z,20.46
2023-05-25T11:02:51.614Z,20.56
2023-05-25T11:05:35.273Z,20.57
2023-05-25T11:08:12.249Z,20.66
2023-05-25T11:10:54.203Z,20.38
2023-05-25T11:13:33.767Z,20.55
2023-05-25T11:16:22.085Z,20.68
2023-05-25T11:18:54.825Z,20.94
2023-05-25T11:21:40.783Z,20.84
2023-05-25T11:24:15.858Z,21.30
2023-05-25T11:26:59.733Z,21.29
2023-05-25T11:29:33.102Z,21.08
2023-05-25T11:32:02.796Z,21.05
2023-05-25T11:34:33.171Z,21.12
2023-05-25T11:37:03.680Z,21.36
2023-05-25T11:39:32.590Z,21.54
2023-05-25T11:42:06.926Z,21.54
2023-05-25T11:44:39.115Z,21.88
2023-05-25T11:47:10.157Z,21.62
2023-05-25T11:49:44.254Z,21.71
2023-05-25T11:52:15.195Z,21.69
2023-05-25T11:54:43.920Z,21.99
2023-05-25T11:57:16.539Z,22.17
2023-05-25T11:59:51.496Z,22.33
2023-05-25T12:02:23.029Z,22.38
2023-05-25T12:05:02.590Z,22.78
2023-05-25T12:07:36.709Z,22.53
2023-05-25T12:10:10.706Z,22.13
2023-05-25T12:12:41.837Z,22.30
2023-05-25T12:15:14.748Z,22.70
2023-05-25T12:17:44.789Z,22.52
2023-05-25T12:20:15.209Z,22.84
2023-05-25T12:22:45.077Z,22.63
2023-05-25T12:25:14.708Z,22.55
2023-05-25T12:27:43.773Z,22.68
2023-05-25T12:30:13.989Z,22.55
2023-05-25T12:32:55.550Z,22.75
2023-05-25T12:35:23.926Z,23.02
2023-05-25T12:37:52.388Z,23.19
2023-05-25T12:40:24.534Z,23.46
2023-05-25T12:42:59.280Z,23.61
2023-05-25T12:45:28.902Z,23.77
2023-05-25T12:47:58.759Z,23.85
2023-05-25T12:50:29.518Z,23.67
2023-05-25T12:53:03.211Z,23.92
2023-05-25T12:55:33.026Z,23.94
2023-05-25T12:58:06.262Z,23.75
2023-05-25T13:00:38.395Z,23.74
2023-05-25T13:03:08.426Z,23.67
2023-05-25T13:05:38.677Z,23.81
2023-05-25T13:08:07.704Z,23.52
2023-05-25T13:10:38.434Z,24.00
2023-05-25T13:13:06.694Z,24.20
2023-05-25T13:15:36.343Z,24.18
2023-05-25T13:18:05.465Z,24.08
2023-05-25T13:20:34.453Z,24.00
2023-05-25T13:23:03.255Z,23.89
2023-05-25T13:25:31.650Z,24.26
2023-05-25T13:28:01.231Z,24.15
2023-05-25T13:30:29.614Z,24.15
2023-05-25T13:32:59.571Z,23.99
2023-05-25T13:35:41.355Z,24.31
2023-05-25T13:38:10.368Z,24.51
2023-05-25T13:40:38.628Z,24.52
2023-05-25T13:43:07.400Z,25.02
2023-05-25T13:45:35.725Z,24.12
2023-05-25T13:48:05.587Z,24.88
2023-05-25T13:50:33.887Z,25.33
2023-05-25T13:53:02.170Z,25.27
2023-05-25T13:55:30.786Z,24.80
2023-05-25T13:57:59.022Z,24.93
2023-05-25T14:00:27.619Z,24.98
2023-05-25T14:02:56.027Z,25.43
2023-05-25T14:05:26.125Z,24.57
2023-05-25T14:07:56.326Z,25.30
2023-05-25T14:10:25.449Z,25.43
2023-05-25T14:12:53.802Z,25.54
2023-05-25T14:15:22.080Z,25.30
2023-05-25T14:17:50.776Z,25.35
2023-05-25T14:20:25.227Z,25.53
2023-05-25T14:22:55.234Z,25.54
2023-05-25T14:25:23.587Z,25.60
2023-05-25T14:27:51.922Z,25.19
2023-05-25T14:30:20.994Z,25.15
2023-05-25T14:32:49.307Z,25.29
2023-05-25T14:35:17.583Z,24.91
2023-05-25T14:37:45.826Z,24.86
2023-05-25T14:40:15.643Z,25.24
2023-05-25T14:42:43.882Z,25.00
2023-05-25T14:45:14.494Z,25.12
2023-05-25T14:47:44.137Z,25.20
2023-05-25T14:50:12.893Z,25.44
2023-05-25T14:52:41.996Z,25.35
2023-05-25T14:55:11.580Z,25.34
2023-05-25T14:57:41.420Z,25.24
2023-05-25T15:00:11.481Z,25.07
2023-05-25T15:02:39.801Z,25.09
2023-05-25T15:05:09.824Z,25.34
2023-05-25T15:07:38.138Z,25.24
2023-05-25T15:10:08.501Z,25.27
2023-05-25T15:12:36.680Z,25.18
2023-05-25T15:15:09.176Z,25.03
2023-05-25T15:17:37.305Z,25.07
2023-05-25T15:20:06.466Z,25.15
2023-05-25T15:22:34.725Z,25.07
2023-05-25T15:25:02.985Z,24.95
2023-05-25T15:27:32.236Z,25.09
2023-05-25T15:30:00.494Z,24.90
2023-05-25T15:32:30.202Z,24.84
2023-05-25T15:34:58.977Z,24.53
2023-05-25T15:37:27.270Z,24.48
2023-05-25T15:39:55.814Z,24.39
2023-05-25T15:42:24.059Z,24.36
2023-05-25T15:44:52.292Z,24.38
2023-05-25T15:47:20.491Z,24.20
2023-05-25T15:49:50.003Z,24.34
2023-05-25T15:52:18.275Z,24.42
2023-05-25T15:54:46.510Z,24.29
2023-05-25T15:57:14.891Z,24.16
2023-05-25T15:59:43.088Z,23.83
2023-05-25T16:02:11.434Z,23.77
2023-05-25T16:04:43.268Z,23.95
2023-05-25T16:07:14.162Z,23.87
2023-05-25T16:09:42.356Z,23.28
2023-05-25T16:12:10.597Z,23.22
2023-05-25T16:14:38.819Z,22.35
2023-05-25T16:17:07.103Z,22.89
2023-05-25T16:19:35.342Z,23.47
2023-05-25T16:22:03.506Z,23.55
2023-05-25T16:24:33.077Z,23.03
2023-05-25T16:27:02.569Z,23.09
2023-05-25T16:29:30.990Z,23.15
2023-05-25T16:31:59.225Z,23.27
2023-05-25T16:34:27.490Z,23.04
2023-05-25T16:36:56.147Z,22.92
2023-05-25T16:39:24.392Z,22.55
2023-05-25T16:41:53.980Z,22.83
2023-05-25T16:44:22.234Z,23.01
2023-05-25T16:46:50.466Z,23.37
2023-05-25T16:49:18.745Z,22.91
2023-05-25T16:51:46.980Z,22.92
2023-05-25T16:54:16.410Z,22.92
2023-05-25T16:56:44.589Z,23.08
2023-05-25T16:59:14.209Z,23.07
2023-05-25T17:01:42.584Z,22.78
2023-05-25T17:06:39.443Z,22.55
2023-05-25T17:09:08.663Z,22.23
2023-05-25T17:11:36.934Z,22.69
2023-05-25T17:14:06.269Z,22.41
2023-05-25T17:16:35.848Z,22.58
2023-05-25T17:19:04.167Z,22.40
2023-05-25T17:21:32.434Z,22.51
2023-05-25T17:24:00.653Z,22.25
2023-05-25T17:26:28.895Z,22.45
2023-05-25T17:29:00.637Z,22.29
2023-05-25T17:31:29.027Z,22.19
2023-05-25T17:33:58.997Z,22.16
2023-05-25T17:36:28.965Z,22.11
2023-05-25T17:38:57.171Z,21.66
2023-05-25T17:41:26.269Z,21.69
2023-05-25T17:43:54.504Z,21.65
2023-05-25T17:46:23.075Z,21.42
2023-05-25T17:48:51.501Z,21.40
2023-05-25T17:51:21.734Z,21.20
2023-05-25T17:53:50.619Z,21.24
2023-05-25T17:56:19.297Z,21.33
2023-05-25T17:58:48.122Z,21.47
2023-05-25T18:01:17.191Z,21.34
2023-05-25T18:04:16.105Z,21.44
2023-05-25T18:06:51.531Z,21.48
2023-05-25T18:09:19.886Z,21.71
2023-05-25T18:11:48.576Z,21.56
2023-05-25T18:14:16.792Z,21.20
2023-05-25T18:16:45.232Z,21.40
2023-05-25T18:19:15.302Z,21.16
2023-05-25T18:21:43.603Z,21.28
2023-05-25T18:24:13.228Z,21.05
2023-05-25T18:26:42.559Z,21.02
2023-05-25T18:29:10.799Z,20.84
2023-05-25T18:31:45.488Z,20.65
2023-05-25T18:34:14.408Z,20.63
2023-05-25T18:36:42.815Z,20.31
2023-05-25T18:39:12.684Z,19.99
2023-05-25T18:41:42.500Z,20.04
2023-05-25T18:44:10.753Z,19.60
2023-05-25T18:46:40.442Z,19.59
2023-05-25T18:49:08.712Z,19.44
2023-05-25T18:51:37.421Z,19.31
2023-05-25T18:54:05.702Z,19.30
2023-05-25T18:56:35.268Z,19.29
2023-05-25T18:59:03.433Z,19.19
2023-05-25T19:01:31.771Z,19.04
2023-05-25T19:04:00.133Z,18.83
2023-05-25T19:06:28.430Z,18.91
2023-05-25T19:08:56.774Z,18.84
2023-05-25T19:11:25.006Z,18.76
2023-05-25T19:13:54.610Z,18.66
2023-05-25T19:16:22.907Z,18.50
2023-05-25T19:18:51.154Z,18.58
2023-05-25T19:21:19.373Z,17.56
2023-05-25T19:23:48.581Z,18.23
2023-05-25T19:26:17.215Z,18.02
2023-05-25T19:28:45.524Z,17.92
2023-05-25T19:31:15.136Z,18.06
2023-05-25T19:33:43.485Z,18.07
2023-05-25T19:36:11.762Z,18.05
2023-05-25T19:38:41.719Z,18.03
2023-05-25T19:41:10.499Z,18.15
2023-05-25T19:43:38.771Z,17.98
2023-05-25T19:46:07.140Z,18.02
2023-05-25T19:48:37.098Z,17.93
2023-05-25T19:51:06.408Z,18.10
2023-05-25T19:53:34.627Z,17.89
2023-05-25T19:56:03.412Z,17.79
2023-05-25T19:58:31.679Z,17.69
2023-05-25T20:01:00.075Z,17.85
2023-05-25T20:03:28.422Z,17.66
2023-05-25T20:06:04.740Z,17.62
2023-05-25T20:08:33.189Z,17.61
2023-05-25T20:11:01.563Z,17.51
2023-05-25T20:13:29.888Z,17.58
2023-05-25T20:15:58.547Z,17.39
2023-05-25T20:18:26.780Z,17.43
2023-05-25T20:20:56.944Z,17.48
2023-05-25T20:23:26.537Z,17.43
2023-05-25T20:25:54.749Z,17.26
2023-05-25T20:28:23.128Z,17.28
2023-05-25T20:30:51.552Z,17.30
2023-05-25T20:33:19.800Z,17.17
2023-05-25T20:35:48.213Z,17.23
2023-05-25T20:38:16.578Z,17.25
2023-05-25T20:40:46.351Z,17.07
2023-05-25T20:43:14.656Z,17.09
2023-05-25T20:45:42.979Z,16.99
2023-05-25T20:48:11.380Z,16.82
2023-05-25T20:50:39.640Z,16.82
2023-05-25T20:53:14.207Z,16.85
2023-05-25T20:55:42.541Z,16.55
2023-05-25T20:58:12.224Z,15.86
2023-05-25T21:00:40.722Z,16.51
2023-05-25T21:03:09.374Z,16.40
2023-05-25T21:05:38.173Z,16.46
2023-05-25T21:08:06.462Z,16.42
2023-05-25T21:10:34.768Z,16.43
2023-05-25T21:13:03.094Z,16.47
2023-05-25T21:15:32.761Z,16.34
2023-05-25T21:18:03.297Z,16.27
2023-05-25T21:20:31.672Z,16.17
2023-05-25T21:23:00.693Z,15.82
2023-05-25T21:25:28.929Z,16.06
2023-05-25T21:27:57.392Z,16.04
2023-05-25T21:30:26.581Z,16.01
2023-05-25T21:32:56.153Z,15.99
2023-05-25T21:35:24.450Z,15.81
2023-05-25T21:37:52.768Z,15.87
2023-05-25T21:40:20.966Z,15.84
2023-05-25T21:42:51.095Z,15.91
2023-05-25T21:45:19.782Z,15.90
2023-05-25T21:47:48.213Z,15.70
2023-05-25T21:50:18.142Z,16.45
2023-05-25T21:52:46.505Z,15.90
2023-05-25T21:55:15.178Z,15.86
2023-05-25T21:57:43.858Z,15.74
2023-05-25T22:00:14.187Z,15.58
2023-05-25T22:02:42.431Z,15.47
2023-05-25T22:05:11.274Z,15.40
2023-05-25T22:07:41.748Z,15.35
2023-05-25T22:10:10.714Z,15.36
2023-05-25T22:12:38.987Z,15.39
2023-05-25T22:15:09.029Z,14.86
2023-05-25T22:17:37.283Z,15.25
2023-05-25T22:20:08.241Z,15.16
2023-05-25T22:22:37.834Z,15.11
2023-05-25T22:25:08.404Z,14.97
2023-05-25T22:27:36.672Z,14.99
2023-05-25T22:30:06.480Z,14.97
2023-05-25T22:32:35.172Z,14.99
2023-05-25T22:35:03.818Z,14.98
2023-05-25T22:37:32.436Z,14.94
2023-05-25T22:40:00.695Z,14.91
2023-05-25T22:42:30.244Z,14.20
2023-05-25T22:44:58.606Z,14.86
2023-05-25T22:47:26.880Z,14.87
2023-05-25T22:49:55.157Z,14.85
2023-05-25T22:52:23.413Z,14.79
2023-05-25T22:54:51.684Z,14.89
2023-05-25T22:57:19.875Z,14.74
2023-05-25T22:59:49.939Z,14.77
2023-05-25T23:02:18.170Z,14.47
2023-05-25T23:04:46.459Z,14.82
2023-05-25T23:07:14.707Z,14.69
2023-05-25T23:09:42.971Z,14.65
2023-05-25T23:12:11.277Z,14.58
2023-05-25T23:14:39.533Z,14.43
2023-05-25T23:17:09.085Z,14.43
2023-05-25T23:19:38.662Z,14.28
2023-05-25T23:22:07.129Z,14.27
2023-05-25T23:24:35.401Z,14.40
2023-05-25T23:27:05.173Z,14.20
2023-05-25T23:29:33.456Z,14.30
2023-05-25T23:32:01.829Z,14.16
2023-05-25T23:34:31.632Z,14.12
2023-05-25T23:37:01.456Z,14.12
2023-05-25T23:39:30.933Z,14.34
2023-05-25T23:41:59.213Z,13.89
2023-05-25T23:44:27.483Z,14.07
2023-05-25T23:46:55.802Z,14.05
2023-05-25T23:49:24.136Z,14.05
2023-05-25T23:51:53.774Z,14.26
2023-05-25T23:54:22.027Z,14.07
2023-05-25T23:56:50.383Z,13.87
2023-05-25T23:59:18.649Z,13.09
